hero-logo

Top 15 Knowers of AXP American Express Co - 2017-07-21

Rank Fund Result (K)
1 Bowen Hanes Co Inc $1,257
2 Gillson Capital Lp $1,152
3 Adams Diversified Equity Fund Inc $727
4 Rothschild Asset Management Inc $526
5 Paloma Partners Management Co $501
6 Vantage Financial Partners Ltd Inc $430
7 Amf Pensionsforsakring Ab $414
8 Jane Street Group Llc $380
9 Interval Partners Lp $365
10 Northwestern Mutual Investment Management Company Llc $325
11 Fdo Partners Llc $314
12 Raymond James Associates $226
13 Blair William Co Il $179
14 Squarepoint Ops Llc $126
15 Envestnet Asset Management Inc $117
Price Chart and News From Google Finance for AXP American Express Co
Owner Date Shares Change Price Change Result (K)
10-15 Associates Inc 2017-03-31 3,191 $5.03 $16
Acrospire Investment Management Llc 2017-03-31 100 $5.03 $0
Adams Diversified Equity Fund Inc 2017-03-31 144,700 $5.03 $727
Advantage Investment Management Llc 2017-03-31 269 $5.03 $1
Ahl Partners Llp 2017-03-31 -2,930 $5.03 $-14
Allen Investment Management Llc 2017-03-31 2,899 $5.03 $14
Allsquare Wealth Management Llc 2017-03-31 -98 $5.03 $0
Alpine Partners Vi Llc 2017-03-31 10,316 $5.03 $51
Amalgamated Bank 2017-03-31 994 $5.03 $5
Amf Pensionsforsakring Ab 2017-03-31 82,311 $5.03 $414
Ancora Advisors Llc 2017-03-31 -250 $5.03 $-1
Aperio Group Llc 2017-03-31 1,813 $5.03 $9
Archford Capital Strategies Llc 2017-03-31 1,225 $5.03 $6
Argi Investment Services Llc 2017-03-31 449 $5.03 $2
Arrow Financial Corp 2017-03-31 -975 $5.03 $-4
A R T Advisors Llc 2017-03-31 21,600 $5.03 $108
Aspen Investment Management Inc 2017-03-31 0 $5.03 $0
Assenagon Asset Management S A 2017-03-31 -5,756 $5.03 $-28
Assetmark Inc 2017-03-31 -616 $5.03 $-3
Atika Capital Management Llc 2017-03-31 -54,000 $5.03 $-271
Atlanta Capital Management Co L L C 2017-03-31 -158,651 $5.03 $-798
Aua Capital Management Llc 2017-03-31 -2,400 $5.03 $-12
Auxier Asset Management 2017-03-31 -50 $5.03 $0
Bahl Gaynor Inc 2017-03-31 -3,330 $5.03 $-16
Balentine Llc 2017-03-31 -565 $5.03 $-2
Barr E S Co 2017-03-31 -33,438 $5.03 $-168
Beacon Financial Group 2017-06-30 1,245 $5.13 $6
Birmingham Capital Management Co Inc Al 2017-03-31 0 $5.03 $0
Blair William Co Il 2017-03-31 35,624 $5.03 $179
Bokf Na 2017-03-31 -6,793 $5.03 $-34
Boston Private Wealth Llc 2017-03-31 -3,110 $5.03 $-15
Bowen Hanes Co Inc 2017-03-31 249,950 $5.03 $1,257
Bragg Financial Advisors Inc 2017-03-31 174 $5.03 $0
Bridgeway Capital Management Inc 2017-03-31 2,600 $5.03 $13
Brighton Jones Llc 2017-03-31 4,873 $5.03 $24
Brinker Capital Inc 2017-03-31 -10,866 $5.03 $-54
Broderick Brian C 2017-03-31 -500 $5.03 $-2
Brown Brothers Harriman Co 2017-03-31 -221 $5.03 $-1
Budros Ruhlin Roe Inc 2017-03-31 -521 $5.03 $-2
Bush Odonnell Investment Advisors Inc 2017-03-31 -88,427 $5.03 $-444
California State Teachers Retirement System 2017-03-31 -160,500 $5.03 $-807
Cambria Investment Management L P 2017-03-31 14,900 $5.03 $74
Camg Solamere Management Llc 2017-03-31 4 $5.03 $0
Canandaigua National Bank Trust Co 2017-03-31 -100 $5.03 $0
Capital Guardian Trust Co 2017-03-31 -400 $5.03 $-2
Capital Wealth Planning Llc 2017-03-31 -2,911 $5.03 $-14
Capstone Investment Advisors Llc 2017-03-31 -80 $5.03 $0
Catamount Wealth Management 2017-03-31 0 $5.03 $0
Cetera Advisor Networks Llc 2017-03-31 -58 $5.03 $0
Cetera Advisors Llc 2017-03-31 3,151 $5.03 $15
Chartwell Investment Partners Llc 2017-03-31 0 $5.03 $0
Chelsea Counsel Co 2017-03-31 -177 $5.03 $0
Chilton Capital Management Llc 2017-03-31 9,324 $5.03 $46
Claar Advisors Llc 2017-03-31 0 $5.03 $0
Clear Perspective Advisors Llc 2017-03-31 -100 $5.03 $0
Compagnie Lombard Odier Scma 2017-03-31 90 $5.03 $0
Compton Capital Management Inc Ri 2017-03-31 -84 $5.03 $0
Confluence Investment Management Llc 2017-03-31 4,449 $5.03 $22
Cornerstone Capital Management Holdings Llc 2017-03-31 -9,923 $5.03 $-49
Cornerstone Wealth Management Llc 2017-03-31 942 $5.03 $4
Covington Capital Management 2017-03-31 -332 $5.03 $-1
Crawford Investment Counsel Inc 2017-03-31 -10,850 $5.03 $-54
Cs Mckee Lp 2017-03-31 -14,031 $5.03 $-70
Cypress Wealth Advisors Llc 2017-03-31 260 $5.03 $1
D A Davidson Co 2017-03-31 -3,871 $5.03 $-19
Davidson Investment Advisors 2017-03-31 0 $5.03 $0
Earnest Partners Llc 2017-03-31 -405 $5.03 $-2
Edmond De Rothschild Holding S A 2017-03-31 -2,363 $5.03 $-11
Ellington Management Group Llc 2017-03-31 -7,300 $5.03 $-36
Endeavour Capital Advisors Inc 2017-03-31 -371,464 $5.03 $-1,868
Envestnet Asset Management Inc 2017-03-31 23,406 $5.03 $117
Estabrook Capital Management 2017-03-31 0 $5.03 $0
Fairfield Bush Co 2017-03-31 0 $5.03 $0
Farmers National Bank 2017-03-31 0 $5.03 $0
Fdo Partners Llc 2017-03-31 62,609 $5.03 $314
Fdx Advisors Inc 2017-03-31 -6,275 $5.03 $-31
Fiera Capital Corp 2017-03-31 1,300 $5.03 $6
Firefly Value Partners Lp 2017-03-31 -5,373 $5.03 $-27
First Heartland Consultants Inc 2017-03-31 1,850 $5.03 $9
First Pacific Advisors Llc 2017-03-31 -2,406,214 $5.03 $-12,103
First Republic Investment Management Inc 2017-03-31 -9,049 $5.03 $-45
Flagship Harbor Advisors Llc 2017-03-31 722 $5.03 $3
Folger Hill Asset Management Lp 2017-03-31 12,551 $5.03 $63
Genesee Valley Trust Co 2017-03-31 -2,860 $5.03 $-14
Gillson Capital Lp 2017-03-31 229,079 $5.03 $1,152
Glassman Wealth Services 2017-03-31 -37 $5.03 $0
Glen Harbor Capital Management Llc 2017-03-31 7,392 $5.03 $37
Glg Llc 2017-03-31 -99 $5.03 $0
Godshalk Welsh Capital Management Inc 2017-03-31 0 $5.03 $0
Gotham Asset Management Llc 2017-03-31 -1,651 $5.03 $-8
Greenwood Gearhart Inc 2017-03-31 1,835 $5.03 $9
Group One Trading L P 2017-03-31 -725 $5.03 $-3
Gsa Capital Partners Llp 2017-03-31 -24,181 $5.03 $-121
Guardian Capital Advisors Lp 2017-03-31 2,459 $5.03 $12
Guardian Capital Lp 2017-03-31 5,738 $5.03 $28
Guggenheim Capital Llc 2017-03-31 -8,435 $5.03 $-42
Hanson Doremus Investment Management 2017-03-31 0 $5.03 $0
Hbk Sorce Advisory Llc 2017-03-31 -102 $5.03 $0
Hendley Co Inc 2017-03-31 -3,135 $5.03 $-15
Highlander Capital Management Llc 2017-03-31 0 $5.03 $0
Highvista Strategies Llc 2017-03-31 14,000 $5.03 $70
Horizon Kinetics Llc 2017-03-31 0 $5.03 $0
Hutner Capital Management Inc 2017-03-31 717 $5.03 $3
Ibex Wealth Advisors 2017-03-31 -209 $5.03 $-1
Ifp Advisors Inc 2017-03-31 -1,425 $5.03 $-7
Iht Wealth Management Llc 2017-03-31 -177 $5.03 $0
Intellectus Partners Llc 2017-03-31 0 $5.03 $0
Interval Partners Lp 2017-03-31 72,733 $5.03 $365
Invictus Rg 2017-03-31 175 $5.03 $0
Ironsides Asset Advisors Llc 2017-03-31 -36,450 $5.03 $-183
Ironwood Investment Counsel Llc 2017-03-31 940 $5.03 $4
Israel Discount Bank Of New York 2017-03-31 -1,940 $5.03 $-9
Itau Unibanco Holding S A 2017-03-31 130 $5.03 $0
Jane Street Group Llc 2017-03-31 75,683 $5.03 $380
Jarislowsky Fraser Ltd 2017-03-31 -600 $5.03 $-3
Johnson Investment Counsel Inc 2017-03-31 20,945 $5.03 $105
Kemper Corp Master Retirement Trust 2017-03-31 -1,000 $5.03 $-5
Kentucky Retirement Systems 2017-03-31 -7,250 $5.03 $-36
Kentucky Retirement Systems Insurance Trust Fund 2017-03-31 -4,420 $5.03 $-22
Knightsbridge Asset Management Llc 2017-03-31 173 $5.03 $0
Kopp Investment Advisors Llc 2017-03-31 -338 $5.03 $-1
Kovitz Investment Group Partners Llc 2017-03-31 8,559 $5.03 $43
Krilogy Financial Llc 2017-03-31 0 $5.03 $0
Ladenburg Thalmann Financial Services Inc 2017-03-31 -9,361 $5.03 $-47
Laurel Wealth Advisors Inc 2017-03-31 459 $5.03 $2
Lebenthal Asset Management Llc 2017-03-31 -3,755 $5.03 $-18
Lenox Wealth Management Inc 2017-03-31 35 $5.03 $0
Level Four Advisory Services Llc 2017-03-31 134 $5.03 $0
London Co Of Virginia 2017-03-31 3,277 $5.03 $16
Loomis Sayles Co L P 2017-03-31 -49,632 $5.03 $-249
Lowe Brockenbrough Co Inc 2017-03-31 314 $5.03 $1
L S Advisors Inc 2017-03-31 -53,171 $5.03 $-267
Magellan Asset Management Ltd 2017-03-31 0 $5.03 $0
Marco Investment Management Llc 2017-03-31 -1,100 $5.03 $-5
Marietta Investment Partners Llc 2017-03-31 0 $5.03 $0
Mariner Wealth Advisors Llc 2017-03-31 729 $5.03 $3
Mason Street Advisors Llc 2017-03-31 -549 $5.03 $-2
Meadow Creek Investment Management Llc 2017-03-31 11,424 $5.03 $57
M Holdings Securities Inc 2017-03-31 2,676 $5.03 $13
Moloney Securities Asset Management Llc 2017-03-31 -18 $5.03 $0
Moneta Group Investment Advisors Llc 2017-03-31 -618 $5.03 $-3
Mv Capital Management Inc 2017-03-31 33 $5.03 $0
National Asset Management Inc 2017-03-31 -441 $5.03 $-2
Neuburgh Advisers Llc 2017-03-31 5,376 $5.03 $27
Northwestern Mutual Investment Management Company Llc 2017-03-31 64,754 $5.03 $325
Northwestern Mutual Wealth Management Co 2017-03-31 -13,591 $5.03 $-68
One Capital Management Llc 2017-03-31 -1,144 $5.03 $-5
Optimum Investment Advisors 2017-03-31 0 $5.03 $0
Overbrook Management Corp 2017-03-31 1,805 $5.03 $9
Pacifica Capital Investments Llc 2017-03-31 -40,319 $5.03 $-202
Pacific Center For Financial Services 2017-03-31 0 $5.03 $0
Paloma Partners Management Co 2017-03-31 99,618 $5.03 $501
Patriot Financial Group Insurance Agency Llc 2017-03-31 0 $5.03 $0
Perigon Wealth Management Llc 2017-03-31 215 $5.03 $1
Piedmont Investment Advisors Llc 2017-03-31 -6,942 $5.03 $-34
Pinkerton Retirement Specialists Llc 2017-03-31 -33 $5.03 $0
Pittenger Anderson Inc 2017-03-31 -3,700 $5.03 $-18
Princeton Portfolio Strategies Group Llc 2017-03-31 -480 $5.03 $-2
Proficio Capital Partners Llc 2017-03-31 524 $5.03 $2
Pt Asset Management Llc 2017-03-31 -3,955 $5.03 $-19
Public Employees Retirement System Of Ohio 2017-03-31 -38,118 $5.03 $-191
Qcm Cayman Ltd 2017-03-31 4,022 $5.03 $20
Quest Investment Management Inc Or 2017-03-31 -4,260 $5.03 $-21
Raymond James Associates 2017-03-31 45,079 $5.03 $226
Rb Capital Management Llc 2017-03-31 2,540 $5.03 $12
Rbf Capital Llc 2017-03-31 0 $5.03 $0
Redwood Investments Llc 2017-03-31 0 $5.03 $0
Reynders Mcveigh Capital Management Llc 2017-03-31 0 $5.03 $0
Richard Bernstein Advisors Llc 2017-03-31 0 $5.03 $0
Riverhead Capital Management Llc 2017-03-31 5,873 $5.03 $29
Rocky Mountain Advisers Llc 2017-03-31 0 $5.03 $0
Rodgers Brothers Inc 2017-03-31 -300 $5.03 $-1
Rothschild Asset Management Inc 2017-03-31 104,647 $5.03 $526
Round Hill Asset Management 2017-03-31 0 $5.03 $0
Roundview Capital Llc 2017-03-31 -35,700 $5.03 $-179
Salem Investment Counselors Inc 2017-03-31 2,825 $5.03 $14
Samlyn Capital Llc 2017-03-31 -816,973 $5.03 $-4,109
Sandhill Capital Partners Llc 2017-03-31 -1,863 $5.03 $-9
Sather Financial Group Inc 2017-03-31 0 $5.03 $0
Schonfeld Strategic Advisors Llc 2017-03-31 8,244 $5.03 $41
Schwerin Boyle Capital Management Inc 2017-03-31 -2,375 $5.03 $-11
Sciencast Management Lp 2017-03-31 -5,071 $5.03 $-25
Scotia Capital Inc 2017-03-31 -17,155 $5.03 $-86
Segall Bryant Hamill Llc 2017-03-31 220 $5.03 $1
Sentinel Asset Management Inc 2017-03-31 -40,000 $5.03 $-201
Sequoia Financial Advisors Llc 2017-03-31 -3,537 $5.03 $-17
Signaturefd Llc 2017-03-31 293 $5.03 $1
Silvercrest Asset Management Group Llc 2017-03-31 -3,035 $5.03 $-15
Sns Financial Group Llc 2017-03-31 -3,160 $5.03 $-15
Somerville Kurt F 2017-03-31 -500 $5.03 $-2
Southernsun Asset Management Llc 2017-03-31 116 $5.03 $0
Sowell Financial Services Llc 2017-03-31 -1,610 $5.03 $-8
Squarepoint Ops Llc 2017-03-31 25,156 $5.03 $126
Srs Capital Advisors Inc 2017-03-31 138 $5.03 $0
Steinberg Global Asset Management 2017-03-31 -180 $5.03 $0
Sterling Capital Management Llc 2017-03-31 3,441 $5.03 $17
Sterling Investment Advisors Ltd 2017-03-31 0 $5.03 $0
Sterneck Capital Management Llc 2017-03-31 -19,058 $5.03 $-95
Stewart West Indies Trading Co Ltd 2017-03-31 0 $5.03 $0
Stifel Financial Corp 2017-03-31 -60,731 $5.03 $-305
Summit Global Investments 2017-03-31 5,244 $5.03 $26
Taurus Asset Management Llc 2017-03-31 -9,525 $5.03 $-47
Thomas J Herzfeld Advisors Inc 2017-03-31 507 $5.03 $2
Tobam 2017-03-31 -29,554 $5.03 $-148
Tortoise Investment Management Llc 2017-03-31 0 $5.03 $0
Two Sigma Securities Llc 2017-03-31 -986 $5.03 $-4
United Capital Financial Advisers Llc 2017-03-31 -9,993 $5.03 $-50
Vantage Financial Partners Ltd Inc 2017-03-31 85,499 $5.03 $430
Veritable L P 2017-03-31 -1,575 $5.03 $-7
Verition Fund Management Llc 2017-03-31 3,207 $5.03 $16
Voloridge Investment Management Llc 2017-03-31 -78,116 $5.03 $-392
Wasatch Advisors Inc 2017-03-31 6,000 $5.03 $30
Waters Parkerson Co Llc 2017-03-31 2,569 $5.03 $12
Wayne Hummer Investments L L C 2017-03-31 9,342 $5.03 $46
Webster Bank N A 2017-03-31 0 $5.03 $0
Westside Investment Management Inc 2017-03-31 410 $5.03 $2
Whalerock Point Partners Llc 2017-03-31 0 $5.03 $0
Willis Investment Counsel 2017-03-31 2,580 $5.03 $12
Yorkbridge Wealth Partners Llc 2017-03-31 245 $5.03 $1
Zevin Asset Management Llc 2017-03-31 0 $5.03 $0